Startline

Run for Women

Saskatoon, SK - 18 juin 2022

Event Website
Épreuve Rang Temps officiel Dossard Nom Division Rang/sexe Rang/division Puce
5K 1/210 0:23:58 12652 DHIR, Kara F3039 1/171 1/45 0:23:43
5K 2/210 0:24:12 3337 CLAVELLE, Jayce M-U20 1/36 1/3 0:24:08
5K 3/210 0:25:00 3371 YANG, Bonnie F2029 2/171 1/41 0:24:55
5K 4/210 0:26:27 12613 DELMAGE, Ian M4049 2/36 1/9 0:26:14
5K 5/210 0:26:36 12514 CLARKSON, Adam M4049 3/36 2/9 0:26:34
5K 6/210 0:27:09 12665 HAY, Kathy F4049 3/171 1/42 0:27:08
5K 7/210 0:27:33 12662 KUZUB-TREMBLAY, Laura F3039 4/171 2/45 0:27:33
5K 8/210 0:27:35 12663 WAGNER, Katrina F3039 5/171 3/45 0:27:33
5K 9/210 0:28:24 12565 JALBUU, Nyamaa F3039 6/171 4/45 0:28:14
5K 10/210 0:28:26 12515 CLARKSON, Zain M-U20 4/36 2/3 0:28:24
5K 11/210 0:28:44 3333 SHAKOTKO, Karla F3039 7/171 5/45 0:28:24
5K 12/210 0:29:38 12607 BULAS, Patrick M4049 5/36 3/9 0:29:17
5K 13/210 0:30:06 12596 GARAND, Karlee F3039 8/171 6/45 0:30:01
5K 14/210 0:30:17 12561 JOHNSTON, Rob M4049 6/36 4/9 0:30:16
5K 15/210 0:30:19 12504 KRUEGER, Chelsea M3039 7/36 1/10 0:30:13
5K 16/210 0:31:32 12564 DELGERJAV, Tamira F4049 9/171 2/42 0:31:22
5K 17/210 0:31:35 12557 DOWN, Brina F3039 10/171 7/45 0:31:27
5K 18/210 0:31:35 12597 KECK, Ashley F3039 11/171 8/45 0:31:13
5K 19/210 0:31:37 3349 POFFENROTH, Colette F4049 12/171 3/42 0:31:30
5K 20/210 0:32:11 3355 CHICK, Yasmin F4049 13/171 4/42 0:32:02
5K 21/210 0:32:18 3348 GIRARDIN, Krista F3039 14/171 9/45 0:32:10
5K 22/210 0:32:24 12560 BAMBERGER, Andrea F3039 15/171 10/45 0:32:19
5K 23/210 0:32:25 7032 VALIMAKI, Anna F6069 16/171 1/6 0:32:16
5K 24/210 0:32:33 12527 DUNLOP, Marnie F3039 17/171 11/45 0:32:28
5K 25/210 0:33:55 3377 GLEISBERG, Pascale F3039 18/171 12/45 0:33:07
5K 26/210 0:34:07 12602 PRYTULA, Ella F-U20 19/171 1/9 0:33:46
5K 27/210 0:34:09 12598 PRYTULA, Michelle F5059 20/171 1/21 0:33:47
5K 28/210 0:34:09 12601 BURGESS, David M4049 8/36 5/9 0:33:46
5K 29/210 0:35:16 3379 KENNEDY, Kelcee F2029 21/171 2/41 0:35:04
5K 30/210 0:35:17 3378 KENNEDY, Kya F2029 22/171 3/41 0:35:02
5K 31/210 0:35:17 3380 KENNEDY, Keelin F2029 23/171 4/41 0:35:05
5K 32/210 0:35:20 3381 KENNEDY, Kim F4049 24/171 5/42 0:35:07
5K 33/210 0:35:22 12568 BALL, Candice F5059 25/171 2/21 0:35:00
5K 34/210 0:35:59 12666 HARLAND, Brianne F2029 26/171 5/41 0:35:47
5K 35/210 0:36:08 7021 RODONETS, Scott M3039 9/36 2/10 0:36:02
5K 36/210 0:36:48 12612 FEHR, Virginia F4049 27/171 6/42 0:36:37
5K 37/210 0:37:40 12528 MALEC, Brooklynn F2029 28/171 6/41 0:37:40
5K 38/210 0:37:53 3398 BURRIS, Mike M3039 10/36 3/10 0:37:40
5K 39/210 0:37:53 3399 JACKSON, Pamela F4049 29/171 7/42 0:37:41
5K 40/210 0:38:08 12670 HOFFART, Wendy F6069 30/171 2/6 0:37:35
5K 41/210 0:38:12 3370 ANGELINAS, Litsa F3039 31/171 13/45 0:38:01
5K 42/210 0:39:06 12506 REMAI, Erin F2029 32/171 7/41 0:38:50
5K 43/210 0:39:06 12524 KNIEVEL, Sylvia F-U20 33/171 2/9 0:38:04
5K 44/210 0:39:08 12525 KNIEVEL, Donna F4049 34/171 8/42 0:38:08
5K 45/210 0:39:08 12599 BETKE, Erin F3039 35/171 14/45 0:38:44
5K 46/210 0:39:49 12522 MUZAFFAR, Syed Salman M2029 11/36 1/6 0:39:30
5K 47/210 0:40:51 3334 ZIDKOVICH, Jesse F3039 36/171 15/45 0:40:31
5K 48/210 0:40:55 18558 YUILL, Hayley F3039 37/171 16/45 0:40:39
5K 49/210 0:41:07 12519 GAVELIS, Lisa F4049 38/171 9/42 0:40:58
5K 50/210 0:41:07 12520 PARKER, Robyn F3039 39/171 17/45 0:40:58
5K 51/210 0:41:41 3374 HEISLER, Angie F3039 40/171 18/45 0:40:51
5K 52/210 0:42:28 12700 DRODER, Sarah F3039 41/171 19/45 0:42:12
5K 53/210 0:43:20 12664 DUMAIS, Jody F4049 42/171 10/42 0:43:10
5K 54/210 0:43:47 12555 SANDERSON, Haley F3039 43/171 20/45 0:43:42
5K 55/210 0:44:22 12604 MULDER, Lierin F3039 44/171 21/45 0:44:07
5K 56/210 0:44:23 12647 ARIZMENDI, Liliane F4049 45/171 11/42 0:44:07
5K 57/210 0:44:26 12563 FRANKS, Sherry F4049 46/171 12/42 0:44:20
5K 58/210 0:45:31 3354 DRAYTON, Ashley F3039 47/171 22/45 0:45:23
5K 59/210 0:45:32 12655 TRUITT, Destiny F3039 48/171 23/45 0:45:22
5K 60/210 0:45:49 12556 WARNKE, Brenda F5059 49/171 3/21 0:45:35
5K 61/210 0:45:49 12526 MCCANN, Carmen F4049 50/171 13/42 0:45:22
5K 62/210 0:48:23 3356 HAYDEN, Kaylee F3039 51/171 24/45 0:48:11
5K 63/210 0:48:56 12558 SINGH, Harinderpal M2029 12/36 2/6 0:48:51
5K 64/210 0:48:56 12559 DHUNNA, Jasleen F2029 52/171 8/41 0:48:52
5K 65/210 0:49:11 7008 DEAN, Kendra F4049 53/171 14/42 0:48:51
5K 66/210 0:49:20 12623 FELL-COMRIE, Amber F4049 54/171 15/42 0:48:54
5K 67/210 0:49:20 12624 TANASICHUK, Kristi F4049 55/171 16/42 0:48:54
5K 68/210 0:49:35 12513 PUTNAM, Amy F3039 56/171 25/45 0:48:50
5K 69/210 0:50:53 12533 SALMERS, Marlene F6069 57/171 3/6 0:50:37
5K 70/210 0:50:54 12532 SALMERS, Katie F3039 58/171 26/45 0:50:37
5K 71/210 0:50:59 12562 LLOYD, Karen F5059 59/171 4/21 0:50:50
5K 72/210 0:52:05 12547 IVRINE, Jessica F-U20 60/171 3/9 0:51:40
5K 73/210 0:52:19 12536 ANDERSON, Savannah F3039 61/171 27/45 0:51:47
5K 74/210 0:52:24 3382 KLEIBOER, Brie F-U20 62/171 4/9 0:52:21
5K 75/210 0:52:25 3386 NAGY, Lori F4049 63/171 17/42 0:52:21
5K 76/210 0:52:25 3383 KLEIBOER, Brooke F2029 64/171 9/41 0:52:21
5K 77/210 0:52:53 12626 OYEDEJI, Temitayo F4049 65/171 18/42 0:52:37
5K 78/210 0:53:22 12578 ROBERTSON, Kayella F-U20 66/171 5/9 0:52:54
5K 79/210 0:53:22 12571 COLE, Amber 67/171   0:52:53
5K 80/210 0:53:36 3394 CRAFT, Nicole F3039 68/171 28/45 0:53:15
5K 81/210 0:53:37 3395 BITINSKY, Lori F4049 69/171 19/42 0:53:16
5K 82/210 0:53:46 12543 GLINES, Taylor F2029 70/171 10/41 0:53:21
5K 83/210 0:53:58 12550 MELICHIORRE, Dante M4049 13/36 6/9 0:53:26
5K 84/210 0:53:59 12542 GLINES, Connie F3039 71/171 29/45 0:53:26
5K 85/210 0:54:01 12539 DYCK, Laurie F6069 72/171 4/6 0:53:28
5K 86/210 0:54:01 12549 MCKENZIE, Connie F6069 73/171 5/6 0:53:30
5K 87/210 0:54:02 3335 SZUBA, Lynn F5059 74/171 5/21 0:53:30
5K 88/210 0:54:02 3336 ABREY, Cindy F3039 75/171 30/45 0:53:30
5K 89/210 0:54:12 12545 HJERMENRUDE, Alicia F3039 76/171 31/45 0:53:36
5K 90/210 0:54:13 3387 CRAWFORD, Jenna F3039 77/171 32/45 0:53:14
5K 91/210 0:54:13 3388 LINGELBACH, Adam M2029 14/36 3/6 0:53:14
5K 92/210 0:54:16 12529 RADKE, Gracie F-U20 78/171 6/9 0:53:56
5K 93/210 0:54:17 12530 RADKE, Heather F4049 79/171 20/42 0:53:58
5K 94/210 0:54:18 3390 LEAO, Simone F3039 80/171 33/45 0:53:19
5K 95/210 0:54:20 12531 RADKE, Sarah F2029 81/171 11/41 0:53:59
5K 96/210 0:54:27 12512 SHOEMAKER, Corey M4049 15/36 7/9 0:53:32
5K 97/210 0:54:28 12511 ZARY, Jennifer F4049 82/171 21/42 0:53:43
5K 98/210 0:54:34 3340 MIDDELKAMP, Mike M3039 16/36 4/10 0:53:54
5K 99/210 0:54:35 3338 GREWAL, Harinder F3039 83/171 34/45 0:53:54
5K 100/210 0:54:35 12658 WRIGHT, Kymm F4049 84/171 22/42 0:53:53
5K 101/210 0:54:35 3346 TONSAKER, Ashley F2029 85/171 12/41 0:53:40
5K 102/210 0:54:36 12603 LARSON, Kelsey 1/2   0:53:40
5K 103/210 0:55:11 12672 FINLAY, Carl M6069 17/36 1/2 0:54:34
5K 104/210 0:55:17 12673 FINLAY, Heather F5059 86/171 6/21 0:54:40
5K 105/210 0:55:26 12631 BEAULIEU, Tanya F4049 87/171 23/42 0:55:18
5K 106/210 0:55:28 12659 GOETZ, Jordan M3039 18/36 5/10 0:54:45
5K 107/210 0:55:38 12517 MORRISON, Mary Jane F5059 88/171 7/21 0:54:56
5K 108/210 0:55:43 12518 MORRISON, Whitney F3039 89/171 35/45 0:55:00
5K 109/210 0:56:00 12553 SMITH, Reckelle F-U20 90/171 7/9 0:55:35
5K 110/210 0:56:01 12552 RABENITAS, Danille F-U20 91/171 8/9 0:55:36
5K 111/210 0:56:01 12544 HARSTONE, Ava F2029 92/171 13/41 0:55:37
5K 112/210 0:57:01 12650 CHABOT, Amanda F4049 93/171 24/42 0:56:34
5K 113/210 0:57:02 12640 RUSSELL, Serena F4049 94/171 25/42 0:56:33
5K 114/210 0:57:38 12609 PENG, Xiaomeng M3039 19/36 6/10 0:57:25
5K 115/210 0:57:39 3330 HOLT, Tracey F4049 95/171 26/42 0:57:25
5K 116/210 0:57:42 7006 CURTIS, Colette F3039 96/171 36/45 0:57:11
5K 117/210 0:57:48 12521 LOKEN, Victoria F2029 97/171 14/41 9:48:09
5K 118/210 0:57:49 3372 DEWEY, Emma F2029 98/171 15/41 9:48:09
5K 119/210 0:57:50 12627 ROBINSON, Lisa F3039 99/171 37/45 9:48:10
5K 120/210 0:58:07 12585 WOLTER, Marion F5059 100/171 8/21 0:57:43
5K 121/210 0:58:08 12635 GREENWOOD, Kristine F4049 101/171 27/42 0:57:44
5K 122/210 0:58:08 12644 JOYCE, Maureen F5059 102/171 9/21 0:57:45
5K 123/210 0:58:09 12643 BUDHATHOKI, Swikriti F2029 103/171 16/41 0:57:45
5K 124/210 0:58:09 12646 CARNEY, Carol F5059 104/171 10/21 0:57:44
5K 125/210 0:58:09 12648 KHADKA, Babita F4049 105/171 28/42 0:57:44
5K 126/210 0:58:09 12649 GAJJAR, Dina F4049 106/171 29/42 0:57:45
5K 127/210 0:58:09 12645 GRIER, Derek M5059 20/36 1/5 0:57:45
5K 128/210 0:58:09 12642 POOLE, Julia F3039 107/171 38/45 0:57:45
5K 129/210 0:58:09 12641 POOLE, Kathleen F2029 108/171 17/41 0:57:44
5K 130/210 0:58:09 12651 RANI, Dimple F3039 109/171 39/45 0:57:45
5K 131/210 0:58:09 12654 PATEL, Kinja F2029 110/171 18/41 0:57:45
5K 132/210 0:58:10 12656 PATEL, Nirmita F2029 111/171 19/41 0:57:45
5K 133/210 0:58:10 12653 PATEL, Prithvi F2029 112/171 20/41 0:57:45
5K 134/210 0:58:10 12639 SCHNEIDER, Angela F4049 113/171 30/42 0:57:45
5K 135/210 0:58:20 12622 TURCOTTE-MCLEOD, Michelle F3039 114/171 40/45 0:57:50
5K 136/210 0:58:58 12606 BERAST, Tobias 2/2   0:58:30
5K 137/210 0:58:59 12605 USHER, Lindsey F3039 115/171 41/45 0:58:32
5K 138/210 0:59:05 3367 HALKETT, Kayla F2029 116/171 21/41 0:58:57
5K 139/210 0:59:07 3366 MACK, Janelle F4049 117/171 31/42 0:58:22
5K 140/210 0:59:08 3368 PARR, Sarah F4049 118/171 32/42 0:59:01
5K 141/210 0:59:09 3369 ARENTHALS, Rosanna F3039 119/171 42/45 0:59:03
5K 142/210 0:59:47 12667 BELYK, Susan F6069 120/171 6/6 0:59:22
5K 143/210 0:59:48 3400 SHARMA, Anjana F2029 121/171 22/41 0:59:24
5K 144/210 0:59:48 3375 RUTHERFORD, Cherie F3039 122/171 43/45 0:59:22
5K 145/210 0:59:49 3376 RUTHERFORD, Sean M3039 21/36 7/10 0:59:25
5K 146/210 1:00:00 12503 SHEDDEN, Katherine F4049 123/171 33/42 0:59:37
5K 147/210 1:00:04 12548 LAUREN, Bless F2029 124/171 23/41 0:59:28
5K 148/210 1:00:04 3358 MEIER, Shelley F5059 125/171 11/21 0:59:58
5K 149/210 1:00:04 12538 DE GRUZMAN, Jessa F2029 126/171 24/41 0:59:27
5K 150/210 1:00:05 3359 GUILLEMIN, Jo-Anne F5059 127/171 12/21 1:00:00
5K 151/210 1:00:06 12621 AKRE, Kennedy F2029 128/171 25/41 0:59:45
5K 152/210 1:00:08 12620 BROWNE, Carla F5059 129/171 13/21 0:59:51
5K 153/210 1:00:08 12616 TURCOTTE, Leah F2029 130/171 26/41 0:59:51
5K 154/210 1:00:09 12615 TICHKOWSKY, Ashleigh F2029 131/171 27/41 0:59:51
5K 155/210 1:00:10 12617 GURAN, Madison F2029 132/171 28/41 0:59:51
5K 156/210 1:00:10 12619 SKRUPSKI, Brett M4049 22/36 8/9 0:59:52
5K 157/210 1:00:18 3343 HUGIE, Lyndsay F2029 133/171 29/41 0:59:25
5K 158/210 1:00:18 3342 HUGIE, Sherry F5059 134/171 14/21 0:59:26
5K 159/210 1:00:19 3341 HUGIE, Greg M5059 23/36 2/5 0:59:26
5K 160/210 1:00:19 12600 MATHESON, Laura F4049 135/171 34/42 0:59:54
5K 161/210 1:00:32 12614 MOKRY, Sharon F5059 136/171 15/21 0:59:40
5K 162/210 1:00:43 12628 CROPPER, Kayla F2029 137/171 30/41 0:59:45
5K 163/210 1:00:43 12618 KIRBYSON, Dominique F2029 138/171 31/41 0:59:51
5K 164/210 1:00:51 12608 DUMUK, Ruth F4049 139/171 35/42 0:59:41
5K 165/210 1:00:56 12629 CROPPER, Lisa F4049 140/171 36/42 1:00:00
5K 166/210 1:01:23 12660 RATTANAVONG, Maya F2029 141/171 32/41 1:00:42
5K 167/210 1:01:24 12661 BAZIANY, Lana F2029 142/171 33/41 1:00:45
5K 168/210 1:03:57 3385 EVELEIGH, Amelia F-U20 143/171 9/9 1:03:44
5K 169/210 1:04:15 12572 DEKKER, Veronica F4049 144/171 37/42 1:04:02
5K 170/210 1:04:21 3384 EVELEIGH, Nadine F4049 145/171 38/42 1:04:06
5K 171/210 1:04:21 3392 KORZUN, Nataliya F2029 146/171 34/41 1:01:12
5K 172/210 1:04:21 3393 KAMMER, Tamara F5059 147/171 16/21 1:01:09
5K 173/210 1:04:25 12540 GAGNE, Caleb M3039 24/36 8/10 1:03:51
5K 174/210 1:04:25 12546 HORVAT, Valerija F2029 148/171 35/41 1:03:50
5K 175/210 1:04:28 12632 BAETZ, Cathlyne F2029 149/171 36/41 1:03:27
5K 176/210 1:04:30 3352 BETEMPS, Eric M-U20 25/36 3/3 9:54:51
5K 177/210 1:04:31 3353 BETEMPS, Ryan M5059 26/36 3/5 1:03:32
5K 178/210 1:04:33 12630 PERRA, Bryson M2029 27/36 4/6 1:03:35
5K 179/210 1:04:46 12541 GESBRETH, Teresa F2029 150/171 37/41 1:04:12
5K 180/210 1:04:48 12537 DAUM TURUK, Betty F2029 151/171 38/41 1:04:10
5K 181/210 1:04:55 3396 SUTCLIFFE, Michelle F3039 152/171 44/45 1:03:56
5K 182/210 1:05:00 3397 SUTCLIFFE, Shayne M3039 28/36 9/10 1:04:03
5K 183/210 1:05:22 12584 WHITTINGSTALL, Nathaniel 1/1   1:04:13
5K 184/210 1:05:22 12587 KIMPTON, Angela F4049 153/171 39/42 1:04:20
5K 185/210 1:05:49 12573 FINLAY, Carl M6069 29/36 2/2 1:04:40
5K 186/210 1:05:54 12567 BALL, Albert M70+ 30/36 1/1 9:56:14
5K 187/210 1:05:55 12583 URBANSKY, Shayna F9999 154/171 1/4 1:04:46
5K 188/210 1:05:55 12577 LAPOINTE, Scott M5059 31/36 4/5 1:04:46
5K 189/210 1:05:56 12570 BINARIF, Talha M2029 32/36 5/6 1:04:48
5K 190/210 1:05:58 12574 FINLAY, Heather F5059 155/171 17/21 1:04:46
5K 191/210 1:05:58 12586 ZAKRESKI, Elaine F70+ 156/171 1/2 1:04:50
5K 192/210 1:05:58 12579 ROBERTSON, Kristen F4049 157/171 40/42 1:04:49
5K 193/210 1:05:59 12581 ROBERTSON, Steve M5059 33/36 5/5 1:04:49
5K 194/210 1:06:00 12576 LAPOINTE, Carol F5059 158/171 18/21 1:04:49
5K 195/210 1:07:40 12516 SAUNDERS, Lynn F5059 159/171 19/21 1:07:27
5K 196/210 1:07:41 3389 MCINTOSH, Sherry F5059 160/171 20/21 1:07:27
5K 197/210 1:08:10 3331 KAPELUCK, Debra F5059 161/171 21/21 1:13:23
5K 198/210 1:08:10 12674 DUFOUR, Nathan M4049 34/36 9/9 1:08:07
5K 199/210 1:08:12 12694 COLEMAN, Janelle M3039 35/36 10/10 1:08:11
5K 200/210 1:09:53 12594 WOLOSCHUK, Brett M2029 36/36 6/6 1:09:06
5K 201/210 1:09:57 12589 HNATIUK, Alisa F2029 162/171 39/41 1:09:13
5K 202/210 1:09:58 12588 LACERTE, Monique F4049 163/171 41/42 1:09:14
5K 203/210 1:10:00 12592 MAUNDER, Mildred F70+ 164/171 2/2 1:09:14
5K 204/210 1:10:00 12591 SULLIVAN, Megan F2029 165/171 40/41 1:08:57
5K 205/210 1:10:02 3364 MCDONALD, Cathie F9999 166/171 2/4 1:09:13
5K 206/210 1:10:02 12593 JUSON, Patricia F2029 167/171 41/41 1:09:13
5K 207/210 1:10:03 3363 BURROWS, Kristine F9999 168/171 3/4 1:09:07
5K 208/210 1:10:04 3361 HEEBNER, Dawn F4049 169/171 42/42 1:09:05
5K 209/210 1:10:05 3362 LENNIE, Carole F9999 170/171 4/4 1:09:12
5K 210/210 1:21:58 12671 GERMSHEID, Michelle F3039 171/171 45/45 1:21:24